createdAt,value
2018-08-30T00:00:02.111Z,10.37
2018-08-30T00:02:30.852Z,9.50
2018-08-30T00:04:59.421Z,8.60
2018-08-30T00:07:27.992Z,9.47
2018-08-30T00:09:56.696Z,8.30
2018-08-30T00:12:25.271Z,8.37
2018-08-30T00:14:53.835Z,8.60
2018-08-30T00:17:22.408Z,8.33
2018-08-30T00:19:51.012Z,7.40
2018-08-30T00:22:19.584Z,7.87
2018-08-30T00:24:48.165Z,6.83
2018-08-30T00:27:16.764Z,7.00
2018-08-30T00:29:45.356Z,7.37
2018-08-30T00:32:13.952Z,6.73
2018-08-30T00:34:42.503Z,7.37
2018-08-30T00:37:11.219Z,7.27
2018-08-30T00:39:40.556Z,6.67
2018-08-30T00:42:09.135Z,7.33
2018-08-30T00:44:37.936Z,6.70
2018-08-30T00:47:06.826Z,6.20
2018-08-30T00:49:35.389Z,6.33
2018-08-30T00:52:03.974Z,6.13
2018-08-30T00:54:32.567Z,6.37
2018-08-30T00:57:01.151Z,5.93
2018-08-30T00:59:29.703Z,6.27
2018-08-30T01:01:59.019Z,6.23
2018-08-30T01:04:27.672Z,6.43
2018-08-30T01:07:03.760Z,5.50
2018-08-30T01:09:32.378Z,5.90
2018-08-30T01:12:00.960Z,5.77
2018-08-30T01:14:29.530Z,5.97
2018-08-30T01:21:50.017Z,4.90
2018-08-30T01:24:18.642Z,5.67
2018-08-30T01:26:48.535Z,5.53
2018-08-30T01:29:17.820Z,5.20
2018-08-30T01:31:46.397Z,5.00
2018-08-30T01:34:15.916Z,4.70
2018-08-30T01:36:45.155Z,4.63
2018-08-30T01:39:13.699Z,4.77
2018-08-30T01:41:43.330Z,4.63
2018-08-30T01:44:12.835Z,5.37
2018-08-30T01:46:41.818Z,4.57
2018-08-30T01:49:10.504Z,5.62
2018-08-30T01:51:39.415Z,5.27
2018-08-30T01:54:08.014Z,4.87
2018-08-30T01:56:36.583Z,4.73
2018-08-30T01:59:05.316Z,5.13
2018-08-30T02:01:33.875Z,4.17
2018-08-30T02:04:02.419Z,4.10
2018-08-30T02:06:31.535Z,4.07
2018-08-30T02:09:00.096Z,3.40
2018-08-30T02:11:28.655Z,3.33
2018-08-30T02:13:57.214Z,3.70
2018-08-30T02:16:25.757Z,2.93
2018-08-30T02:18:54.347Z,2.90
2018-08-30T02:21:23.099Z,2.73
2018-08-30T02:23:51.675Z,3.10
2018-08-30T02:26:20.237Z,3.00
2018-08-30T02:28:48.960Z,3.33
2018-08-30T02:31:17.534Z,3.60
2018-08-30T02:33:46.094Z,3.17
2018-08-30T02:36:14.735Z,2.93
2018-08-30T02:38:46.856Z,3.30
2018-08-30T02:41:15.470Z,3.20
2018-08-30T02:43:44.052Z,2.80
2018-08-30T02:46:12.629Z,2.83
2018-08-30T02:48:41.433Z,2.77
2018-08-30T02:51:10.012Z,2.63
2018-08-30T02:53:38.575Z,3.00
2018-08-30T02:56:07.165Z,2.83
2018-08-30T02:58:35.869Z,3.23
2018-08-30T03:01:04.557Z,2.63
2018-08-30T03:03:33.407Z,2.53
2018-08-30T03:06:01.995Z,2.33
2018-08-30T03:08:30.596Z,2.50
2018-08-30T03:10:59.325Z,2.60
2018-08-30T03:13:28.603Z,2.13
2018-08-30T03:15:57.229Z,2.40
2018-08-30T03:18:25.970Z,2.03
2018-08-30T03:20:54.554Z,2.10
2018-08-30T03:23:23.180Z,2.00
2018-08-30T03:25:52.264Z,2.43
2018-08-30T03:28:20.840Z,2.13
2018-08-30T03:30:49.511Z,1.90
2018-08-30T03:33:18.121Z,1.90
2018-08-30T03:35:46.779Z,1.67
2018-08-30T03:38:15.386Z,1.60
2018-08-30T03:40:44.193Z,1.87
2018-08-30T03:43:13.363Z,2.47
2018-08-30T03:45:41.963Z,1.63
2018-08-30T03:48:10.692Z,1.80
2018-08-30T03:50:40.704Z,1.50
2018-08-30T03:53:09.283Z,1.50
2018-08-30T03:55:37.851Z,1.23
2018-08-30T03:58:06.417Z,1.53
2018-08-30T04:00:35.087Z,1.40
2018-08-30T04:03:03.644Z,1.33
2018-08-30T04:05:32.187Z,1.40
2018-08-30T04:08:00.747Z,1.93
2018-08-30T04:10:29.615Z,1.47
2018-08-30T04:12:58.188Z,1.87
2018-08-30T04:15:28.486Z,1.73
2018-08-30T04:17:57.060Z,1.60
2018-08-30T04:20:25.862Z,1.40
2018-08-30T04:22:54.895Z,1.60
2018-08-30T04:25:23.573Z,1.60
2018-08-30T04:27:52.591Z,1.30
2018-08-30T04:30:21.179Z,1.57
2018-08-30T04:32:49.740Z,1.20
2018-08-30T04:35:18.367Z,1.60
2018-08-30T04:37:46.907Z,1.70
2018-08-30T04:40:15.920Z,1.67
2018-08-30T04:42:44.571Z,1.30
2018-08-30T04:45:13.196Z,1.80
2018-08-30T04:47:41.847Z,0.97
2018-08-30T04:50:10.444Z,1.67
2018-08-30T04:52:39.164Z,1.63
2018-08-30T04:55:13.046Z,1.37
2018-08-30T04:57:41.619Z,1.40
2018-08-30T05:00:10.223Z,1.30
2018-08-30T05:02:39.524Z,1.60
2018-08-30T05:05:08.105Z,1.70
2018-08-30T05:07:36.680Z,1.70
2018-08-30T05:10:05.832Z,1.57
2018-08-30T05:12:34.356Z,1.83
2018-08-30T05:15:04.767Z,1.33
2018-08-30T05:17:33.672Z,1.67
2018-08-30T05:20:02.368Z,1.23
2018-08-30T05:22:30.947Z,1.70
2018-08-30T05:24:59.719Z,1.33
2018-08-30T05:27:28.481Z,1.33
2018-08-30T05:29:57.437Z,1.53
2018-08-30T05:32:26.079Z,1.73
2018-08-30T05:34:55.330Z,1.90
2018-08-30T05:37:24.806Z,2.10
2018-08-30T05:39:53.557Z,1.93
2018-08-30T05:42:22.116Z,2.13
2018-08-30T05:44:50.748Z,1.83
2018-08-30T05:47:19.323Z,2.07
2018-08-30T05:49:47.871Z,2.13
2018-08-30T05:52:16.460Z,1.70
2018-08-30T05:54:45.183Z,1.93
2018-08-30T05:57:14.219Z,2.37
2018-08-30T05:59:42.783Z,2.00
2018-08-30T06:02:11.388Z,2.07
2018-08-30T06:04:39.943Z,2.30
2018-08-30T06:07:08.542Z,2.30
2018-08-30T06:09:37.111Z,2.00
2018-08-30T06:12:05.743Z,1.70
2018-08-30T06:14:34.416Z,2.03
2018-08-30T06:17:03.067Z,1.73
2018-08-30T06:19:31.635Z,1.70
2018-08-30T06:22:00.496Z,1.60
2018-08-30T06:24:29.102Z,2.97
2018-08-30T06:26:57.721Z,1.93
2018-08-30T06:29:26.416Z,1.90
2018-08-30T06:31:55.104Z,1.90
2018-08-30T06:34:23.683Z,2.90
2018-08-30T06:36:52.363Z,2.13
2018-08-30T06:39:20.988Z,1.60
2018-08-30T06:41:49.544Z,1.37
2018-08-30T06:44:18.150Z,1.30
2018-08-30T06:46:46.699Z,1.80
2018-08-30T06:49:15.279Z,1.40
2018-08-30T06:51:44.260Z,1.57
2018-08-30T06:54:12.963Z,1.40
2018-08-30T06:56:41.632Z,1.23
2018-08-30T06:59:10.232Z,1.90
2018-08-30T07:01:38.991Z,1.27
2018-08-30T07:04:08.079Z,1.33
2018-08-30T07:06:37.670Z,1.40
2018-08-30T07:09:09.957Z,1.60
2018-08-30T07:11:38.575Z,1.63
2018-08-30T07:14:07.878Z,1.83
2018-08-30T07:16:36.568Z,1.63
2018-08-30T07:19:05.205Z,1.20
2018-08-30T07:21:34.773Z,1.87
2018-08-30T07:24:03.930Z,1.10
2018-08-30T07:26:32.483Z,1.70
2018-08-30T07:29:01.044Z,1.90
2018-08-30T07:31:29.815Z,2.30
2018-08-30T07:33:58.395Z,1.70
2018-08-30T07:36:26.992Z,1.27
2018-08-30T07:38:56.327Z,1.33
2018-08-30T07:41:24.918Z,1.27
2018-08-30T07:43:53.482Z,1.23
2018-08-30T07:46:22.077Z,1.33
2018-08-30T07:48:50.657Z,1.50
2018-08-30T07:51:19.464Z,1.53
2018-08-30T07:53:49.101Z,1.40
2018-08-30T07:56:17.694Z,1.70
2018-08-30T07:58:46.287Z,1.50
2018-08-30T08:01:15.554Z,1.70
2018-08-30T08:03:44.133Z,1.47
2018-08-30T08:06:12.702Z,0.80
2018-08-30T08:08:42.148Z,1.20
2018-08-30T08:11:10.919Z,1.33
2018-08-30T08:13:39.539Z,1.70
2018-08-30T08:16:08.231Z,1.13
2018-08-30T08:18:36.814Z,1.30
2018-08-30T08:21:05.391Z,1.30
2018-08-30T08:23:34.835Z,1.30
2018-08-30T08:26:03.430Z,1.10
2018-08-30T08:28:31.987Z,1.17
2018-08-30T08:31:00.553Z,0.90
2018-08-30T08:33:29.107Z,1.40
2018-08-30T08:35:58.482Z,1.53
2018-08-30T08:38:27.685Z,1.30
2018-08-30T08:40:56.287Z,1.27
2018-08-30T08:43:25.547Z,1.43
2018-08-30T08:45:54.323Z,1.10
2018-08-30T08:48:23.679Z,1.23
2018-08-30T08:50:52.264Z,1.23
2018-08-30T08:53:23.790Z,1.30
2018-08-30T08:55:52.351Z,1.20
2018-08-30T08:58:20.945Z,1.50
2018-08-30T09:00:51.196Z,1.30
2018-08-30T09:03:19.776Z,1.20
2018-08-30T09:05:48.360Z,1.30
2018-08-30T09:08:17.415Z,1.37
2018-08-30T09:10:46.024Z,1.27
2018-08-30T09:13:14.634Z,1.07
2018-08-30T09:15:43.307Z,1.37
2018-08-30T09:18:11.947Z,1.50
2018-08-30T09:20:40.480Z,1.50
2018-08-30T09:23:09.094Z,1.00
2018-08-30T09:25:37.741Z,0.90
2018-08-30T09:28:07.022Z,1.47
2018-08-30T09:30:35.590Z,1.20
2018-08-30T09:33:05.168Z,0.90
2018-08-30T09:35:34.088Z,1.40
2018-08-30T09:38:03.067Z,1.30
2018-08-30T09:40:31.731Z,1.20
2018-08-30T09:43:00.291Z,1.17
2018-08-30T09:45:29.011Z,1.17
2018-08-30T09:47:57.588Z,1.63
2018-08-30T09:50:26.167Z,0.90
2018-08-30T09:52:55.120Z,1.20
2018-08-30T09:55:24.476Z,1.47
2018-08-30T09:57:54.010Z,1.00
2018-08-30T10:00:28.331Z,1.00
2018-08-30T10:02:58.323Z,1.00
2018-08-30T10:05:26.895Z,1.50
2018-08-30T10:07:55.983Z,1.00
2018-08-30T10:10:24.575Z,1.17
2018-08-30T10:12:53.151Z,0.93
2018-08-30T10:15:21.756Z,1.40
2018-08-30T10:17:50.331Z,1.07
2018-08-30T10:20:19.200Z,1.10
2018-08-30T10:22:47.966Z,1.45
2018-08-30T10:25:16.641Z,0.80
2018-08-30T10:27:45.415Z,1.03
2018-08-30T10:30:13.990Z,1.20
2018-08-30T10:32:42.659Z,1.10
2018-08-30T10:35:11.237Z,1.10
2018-08-30T10:37:39.850Z,0.90
2018-08-30T10:40:08.575Z,1.13
2018-08-30T10:42:37.140Z,1.00
2018-08-30T10:45:05.720Z,1.10
2018-08-30T10:47:34.349Z,1.50
2018-08-30T10:50:02.928Z,0.80
2018-08-30T10:52:32.252Z,1.63
2018-08-30T10:55:00.933Z,1.20
2018-08-30T10:57:29.538Z,1.00
2018-08-30T10:59:58.704Z,1.07
2018-08-30T11:02:27.272Z,1.07
2018-08-30T11:04:56.567Z,1.30
2018-08-30T11:07:25.137Z,1.40
2018-08-30T11:09:53.822Z,0.90
2018-08-30T11:12:22.362Z,1.07
2018-08-30T11:14:50.957Z,1.63
2018-08-30T11:17:19.566Z,1.60
2018-08-30T11:19:48.124Z,1.40
2018-08-30T11:22:16.691Z,0.97
2018-08-30T11:24:45.287Z,1.43
2018-08-30T11:27:13.855Z,1.30
2018-08-30T11:29:42.440Z,1.00
2018-08-30T11:32:10.993Z,0.80
2018-08-30T11:34:39.770Z,1.27
2018-08-30T11:37:08.458Z,1.33
2018-08-30T11:39:37.009Z,0.93
2018-08-30T11:42:05.579Z,1.30
2018-08-30T11:44:34.513Z,1.23
2018-08-30T11:47:03.165Z,1.33
2018-08-30T11:49:32.192Z,1.53
2018-08-30T11:52:00.832Z,1.40
2018-08-30T11:54:29.415Z,1.27
2018-08-30T11:56:57.981Z,1.27
2018-08-30T11:59:26.630Z,1.33
2018-08-30T12:01:55.236Z,1.47
2018-08-30T12:04:23.823Z,1.10
2018-08-30T12:06:52.465Z,1.43
2018-08-30T12:09:21.051Z,1.10
2018-08-30T12:11:49.773Z,1.10
2018-08-30T12:14:18.712Z,1.10
2018-08-30T12:16:47.488Z,1.07
2018-08-30T12:19:17.588Z,1.07
2018-08-30T12:21:46.151Z,1.47
2018-08-30T12:24:14.708Z,1.00
2018-08-30T12:26:43.470Z,1.40
2018-08-30T12:29:12.142Z,1.10
2018-08-30T12:31:40.868Z,1.10
2018-08-30T12:34:09.995Z,1.37
2018-08-30T12:36:38.631Z,1.00
2018-08-30T12:39:11.391Z,1.00
2018-08-30T12:41:40.348Z,1.33
2018-08-30T12:44:09.024Z,1.40
2018-08-30T12:46:38.091Z,1.33
2018-08-30T12:49:06.643Z,1.20
2018-08-30T12:51:35.429Z,1.23
2018-08-30T12:54:04.071Z,1.20
2018-08-30T12:56:32.560Z,1.30
2018-08-30T12:59:17.690Z,1.20
2018-08-30T13:01:47.747Z,1.47
2018-08-30T13:04:17.147Z,1.40
2018-08-30T13:07:00.997Z,1.33
2018-08-30T13:09:29.633Z,1.03
2018-08-30T13:11:59.588Z,1.10
2018-08-30T13:14:28.715Z,1.13
2018-08-30T13:16:57.846Z,1.07
2018-08-30T13:19:26.904Z,1.10
2018-08-30T13:21:55.488Z,0.97
2018-08-30T13:24:24.110Z,1.10
2018-08-30T13:26:52.886Z,1.03
2018-08-30T13:29:21.680Z,1.10
2018-08-30T13:31:50.810Z,1.07
2018-08-30T13:34:19.544Z,1.10
2018-08-30T13:36:49.820Z,1.20
2018-08-30T13:39:18.405Z,1.37
2018-08-30T13:41:46.915Z,1.17
2018-08-30T13:44:15.529Z,1.17
2018-08-30T13:46:44.337Z,1.37
2018-08-30T13:49:12.824Z,1.07
2018-08-30T13:51:42.184Z,0.80
2018-08-30T13:54:10.804Z,0.90
2018-08-30T13:56:39.344Z,0.90
2018-08-30T13:59:08.089Z,1.10
2018-08-30T14:01:36.474Z,1.23
2018-08-30T14:04:05.092Z,1.40
2018-08-30T14:06:34.320Z,1.33
2018-08-30T14:09:02.974Z,1.00
2018-08-30T14:11:31.527Z,1.27
2018-08-30T14:14:00.173Z,0.90
2018-08-30T14:16:28.536Z,1.20
2018-08-30T14:18:57.432Z,0.90
2018-08-30T14:21:26.364Z,1.20
2018-08-30T14:23:55.040Z,0.97
2018-08-30T14:26:23.623Z,1.40
2018-08-30T14:28:52.320Z,1.13
2018-08-30T14:31:20.912Z,1.20
2018-08-30T14:33:49.549Z,1.13
2018-08-30T14:36:19.253Z,1.23
2018-08-30T14:38:47.878Z,1.00
2018-08-30T14:41:17.474Z,1.20
2018-08-30T14:43:45.974Z,0.90
2018-08-30T14:46:15.977Z,1.03
2018-08-30T14:48:45.683Z,1.03
2018-08-30T14:51:14.317Z,0.80
2018-08-30T14:53:42.940Z,1.40
2018-08-30T14:56:11.563Z,1.17
2018-08-30T14:58:40.495Z,0.93
2018-08-30T15:01:09.746Z,1.20
2018-08-30T15:03:39.177Z,1.00
2018-08-30T15:06:08.570Z,0.90
2018-08-30T15:08:37.377Z,0.70
2018-08-30T15:11:18.201Z,1.23
2018-08-30T15:13:47.030Z,1.30
2018-08-30T15:16:16.396Z,1.03
2018-08-30T15:18:46.291Z,0.80
2018-08-30T15:21:15.844Z,1.20
2018-08-30T15:23:44.517Z,1.20
2018-08-30T15:26:13.116Z,1.40
2018-08-30T15:28:42.219Z,1.37
2018-08-30T15:31:11.210Z,1.20
2018-08-30T15:33:41.492Z,1.03
2018-08-30T15:36:10.820Z,1.00
2018-08-30T15:38:40.719Z,1.10
2018-08-30T15:41:10.146Z,1.10
2018-08-30T15:43:39.545Z,1.10
2018-08-30T15:46:08.139Z,1.00
2018-08-30T15:48:37.131Z,1.13
2018-08-30T15:51:05.856Z,0.90
2018-08-30T15:53:35.603Z,1.10
2018-08-30T15:56:04.360Z,1.13
2018-08-30T15:58:33.055Z,1.03
2018-08-30T16:01:01.773Z,1.33
2018-08-30T16:03:30.383Z,1.30
2018-08-30T16:06:03.512Z,1.13
2018-08-30T16:08:32.574Z,0.87
2018-08-30T16:11:01.384Z,1.03
2018-08-30T16:13:30.459Z,0.90
2018-08-30T16:15:59.664Z,0.80
2018-08-30T16:18:28.400Z,1.00
2018-08-30T16:20:59.129Z,1.23
2018-08-30T16:23:30.263Z,0.97
2018-08-30T16:25:58.918Z,0.90
2018-08-30T16:28:28.477Z,0.80
2018-08-30T16:30:57.078Z,0.80
2018-08-30T16:33:25.921Z,1.57
2018-08-30T16:35:55.573Z,0.87
2018-08-30T16:38:24.332Z,1.17
2018-08-30T16:40:52.919Z,1.10
2018-08-30T16:43:22.923Z,0.90
2018-08-30T16:45:51.658Z,0.97
2018-08-30T16:48:20.252Z,1.10
2018-08-30T16:50:49.456Z,0.93
2018-08-30T16:53:18.113Z,1.27
2018-08-30T16:55:46.672Z,1.07
2018-08-30T16:58:15.266Z,1.27
2018-08-30T17:00:43.854Z,1.00
2018-08-30T17:03:12.475Z,1.10
2018-08-30T17:05:41.084Z,0.80
2018-08-30T17:08:09.675Z,1.60
2018-08-30T17:10:38.265Z,1.27
2018-08-30T17:13:07.080Z,1.00
2018-08-30T17:15:35.879Z,1.10
2018-08-30T17:18:04.456Z,1.30
2018-08-30T17:20:36.351Z,1.20
2018-08-30T17:23:05.394Z,1.30
2018-08-30T17:25:34.029Z,1.20
2018-08-30T17:28:02.727Z,1.03
2018-08-30T17:30:31.612Z,1.00
2018-08-30T17:33:00.189Z,1.10
2018-08-30T17:35:28.888Z,1.10
2018-08-30T17:37:57.468Z,1.10
2018-08-30T17:40:26.092Z,1.10
2018-08-30T17:42:54.824Z,1.00
2018-08-30T17:45:23.511Z,1.20
2018-08-30T17:47:52.049Z,1.20
2018-08-30T17:50:20.636Z,1.20
2018-08-30T17:52:49.661Z,1.30
2018-08-30T17:55:18.471Z,1.17
2018-08-30T17:57:47.127Z,1.13
2018-08-30T18:00:15.755Z,0.80
2018-08-30T18:02:46.266Z,1.33
2018-08-30T18:05:15.899Z,1.40
2018-08-30T18:07:44.875Z,1.00
2018-08-30T18:10:13.651Z,1.30
2018-08-30T18:12:42.337Z,1.10
2018-08-30T18:15:13.029Z,1.63
2018-08-30T18:17:41.646Z,0.90
2018-08-30T18:20:10.668Z,1.40
2018-08-30T18:22:39.280Z,1.10
2018-08-30T18:25:09.511Z,1.20
2018-08-30T18:27:39.495Z,1.33
2018-08-30T18:30:09.096Z,1.00
2018-08-30T18:32:38.315Z,1.10
2018-08-30T18:35:08.817Z,1.27
2018-08-30T18:37:38.467Z,1.10
2018-08-30T18:40:08.840Z,1.10
2018-08-30T18:42:38.692Z,1.30
2018-08-30T18:45:07.255Z,1.00
2018-08-30T18:47:36.153Z,1.07
2018-08-30T18:50:04.771Z,1.27
2018-08-30T18:52:33.883Z,1.10
2018-08-30T18:55:03.043Z,1.00
2018-08-30T18:57:33.472Z,1.17
2018-08-30T19:00:02.980Z,0.80
2018-08-30T19:02:31.672Z,1.20
2018-08-30T19:05:00.628Z,1.03
2018-08-30T19:07:29.523Z,1.03
2018-08-30T19:09:58.919Z,1.23
2018-08-30T19:12:28.904Z,0.83
2018-08-30T19:14:59.444Z,1.10
2018-08-30T19:17:33.959Z,1.17
2018-08-30T19:20:02.644Z,1.53
2018-08-30T19:22:32.775Z,1.30
2018-08-30T19:25:07.508Z,1.10
2018-08-30T19:27:36.830Z,1.00
2018-08-30T19:30:10.784Z,1.40
2018-08-30T19:32:39.385Z,0.80
2018-08-30T19:35:14.292Z,1.23
2018-08-30T19:37:42.922Z,1.00
2018-08-30T19:40:16.086Z,1.10
2018-08-30T19:42:44.730Z,1.47
2018-08-30T19:45:13.321Z,1.07
2018-08-30T19:47:42.097Z,1.23
2018-08-30T19:50:10.708Z,1.30
2018-08-30T19:52:39.284Z,1.30
2018-08-30T19:55:07.951Z,1.20
2018-08-30T19:57:36.552Z,0.97
2018-08-30T20:00:05.450Z,0.90
2018-08-30T20:02:34.184Z,1.60
2018-08-30T20:05:02.781Z,1.40
2018-08-30T20:07:31.707Z,1.10
2018-08-30T20:10:00.584Z,1.50
2018-08-30T20:12:29.203Z,1.50
2018-08-30T20:14:57.816Z,1.50
2018-08-30T20:17:26.648Z,1.50
2018-08-30T20:19:55.271Z,1.57
2018-08-30T20:22:23.897Z,1.73
2018-08-30T20:24:52.502Z,1.77
2018-08-30T20:27:21.079Z,1.70
2018-08-30T20:29:49.656Z,1.30
2018-08-30T20:32:18.511Z,1.50
2018-08-30T20:34:51.302Z,1.27
2018-08-30T20:37:20.082Z,1.77
2018-08-30T20:39:48.752Z,1.70
2018-08-30T20:42:17.349Z,1.33
2018-08-30T20:44:46.059Z,1.30
2018-08-30T20:47:14.787Z,1.30
2018-08-30T20:49:43.941Z,1.60
2018-08-30T20:52:12.739Z,1.20
2018-08-30T20:54:41.928Z,1.67
2018-08-30T20:57:10.535Z,1.87
2018-08-30T20:59:39.851Z,1.33
2018-08-30T21:02:08.498Z,1.20
2018-08-30T21:04:37.073Z,1.63
2018-08-30T21:07:05.807Z,1.40
2018-08-30T21:09:34.487Z,1.53
2018-08-30T21:12:03.057Z,1.50
2018-08-30T21:14:31.928Z,1.50
2018-08-30T21:17:00.503Z,1.50
2018-08-30T21:19:29.083Z,1.47
2018-08-30T21:21:58.414Z,2.00
2018-08-30T21:24:27.009Z,1.63
2018-08-30T21:26:55.635Z,1.23
2018-08-30T21:29:24.232Z,1.47
2018-08-30T21:31:52.823Z,1.53
2018-08-30T21:34:21.378Z,1.67
2018-08-30T21:36:50.103Z,1.70
2018-08-30T21:39:18.684Z,1.53
2018-08-30T21:41:47.255Z,1.63
2018-08-30T21:44:15.817Z,1.63
2018-08-30T21:46:44.645Z,1.63
2018-08-30T21:49:13.272Z,1.70
2018-08-30T21:51:41.931Z,1.90
2018-08-30T21:54:10.492Z,1.73
2018-08-30T21:56:39.072Z,1.70
2018-08-30T21:59:07.701Z,2.00
2018-08-30T22:01:36.275Z,1.80
2018-08-30T22:04:04.860Z,1.50
2018-08-30T22:06:34.073Z,1.63
2018-08-30T22:09:03.383Z,1.67
2018-08-30T22:11:32.430Z,1.47
2018-08-30T22:14:02.605Z,1.30
2018-08-30T22:16:31.836Z,1.03
2018-08-30T22:19:01.392Z,1.17
2018-08-30T22:21:31.184Z,1.43
2018-08-30T22:23:59.756Z,1.53
2018-08-30T22:26:28.355Z,1.20
2018-08-30T22:28:56.975Z,1.77
2018-08-30T22:31:26.385Z,1.57
2018-08-30T22:33:55.001Z,1.50
2018-08-30T22:36:24.129Z,1.57
2018-08-30T22:38:52.700Z,2.13
2018-08-30T22:41:21.315Z,1.70
2018-08-30T22:43:49.907Z,1.60
2018-08-30T22:46:19.191Z,1.55
2018-08-30T22:48:47.768Z,1.33
2018-08-30T22:51:16.855Z,1.57
2018-08-30T22:53:53.173Z,1.53
2018-08-30T22:56:22.767Z,1.97
2018-08-30T22:58:51.328Z,2.00
2018-08-30T23:01:20.147Z,1.80
2018-08-30T23:03:48.916Z,1.67
2018-08-30T23:06:17.738Z,1.43
2018-08-30T23:08:46.471Z,1.40
2018-08-30T23:11:15.564Z,1.50
2018-08-30T23:13:44.157Z,1.20
2018-08-30T23:16:12.813Z,1.47
2018-08-30T23:18:41.396Z,1.37
2018-08-30T23:21:10.225Z,1.53
2018-08-30T23:23:38.800Z,1.73
2018-08-30T23:26:07.383Z,1.83
2018-08-30T23:28:36.332Z,1.17
2018-08-30T23:31:04.951Z,1.90
2018-08-30T23:33:33.622Z,1.57
2018-08-30T23:36:02.213Z,1.50
2018-08-30T23:38:30.812Z,1.67
2018-08-30T23:40:59.997Z,1.73
2018-08-30T23:43:28.563Z,1.70
2018-08-30T23:45:57.276Z,1.70
2018-08-30T23:48:25.847Z,1.43
2018-08-30T23:50:55.025Z,2.07
2018-08-30T23:53:23.943Z,1.93
2018-08-30T23:55:52.850Z,1.50
2018-08-30T23:58:32.559Z,1.73
